Time,TemperatureF,DewpointF,PressureIn,WindDirection,WindDirectionDegrees,WindSpeedMPH,WindSpeedGustMPH,Humidity,HourlyPrecipIn,Conditions,Clouds,dailyrainin,SoftwareType,DateUTC
2013-03-20 00:02:00,30.0,21.0,30.12,North,355,2.0,6.0,68,0.00,,,0.00,,2013-03-20 05:02:00,
2013-03-20 00:12:00,29.0,20.0,30.11,North,5,5.0,12.0,68,0.00,,,0.00,,2013-03-20 05:12:00,
2013-03-20 00:23:00,29.0,20.0,30.11,North,5,5.0,12.0,68,0.00,,,0.00,,2013-03-20 05:23:00,
2013-03-20 00:32:00,29.0,20.0,30.11,NW,322,5.0,10.0,69,0.00,,,0.00,,2013-03-20 05:32:00,
2013-03-20 00:42:00,29.0,20.0,30.11,NW,322,5.0,10.0,69,0.00,,,0.00,,2013-03-20 05:42:00,
2013-03-20 00:53:00,28.0,20.0,30.11,North,5,2.0,10.0,70,0.00,,,0.00,,2013-03-20 05:53:00,
2013-03-20 01:02:00,28.0,20.0,30.10,NNW,327,3.0,7.0,72,0.00,,,0.00,,2013-03-20 06:02:00,
2013-03-20 01:12:00,28.0,20.0,30.10,NNW,327,3.0,7.0,72,0.00,,,0.00,,2013-03-20 06:12:00,
2013-03-20 01:22:00,28.0,20.0,30.11,NNW,336,3.0,6.0,72,0.00,,,0.00,,2013-03-20 06:22:00,
2013-03-20 01:32:00,28.0,20.0,30.10,WNW,290,2.0,5.0,72,0.00,,,0.00,,2013-03-20 06:32:00,
2013-03-20 01:42:00,28.0,20.0,30.10,WNW,290,2.0,5.0,72,0.00,,,0.00,,2013-03-20 06:42:00,
2013-03-20 01:53:00,27.0,20.0,30.11,NW,308,1.0,4.0,74,0.00,,,0.00,,2013-03-20 06:53:00,
2013-03-20 02:02:00,27.0,20.0,30.11,WNW,302,1.0,6.0,73,0.00,,,0.00,,2013-03-20 07:02:00,
2013-03-20 02:12:00,27.0,20.0,30.11,WNW,302,1.0,6.0,73,0.00,,,0.00,,2013-03-20 07:12:00,
2013-03-20 02:22:00,27.0,20.0,30.11,NW,324,4.0,10.0,74,0.00,,,0.00,,2013-03-20 07:22:00,
2013-03-20 02:32:00,27.0,19.0,30.11,NNE,26,4.0,11.0,71,0.00,,,0.00,,2013-03-20 07:32:00,
2013-03-20 02:42:00,27.0,19.0,30.11,NNE,26,4.0,11.0,71,0.00,,,0.00,,2013-03-20 07:42:00,
2013-03-20 02:52:00,27.0,19.0,30.11,WNW,302,3.0,9.0,71,0.00,,,0.00,,2013-03-20 07:52:00,
2013-03-20 03:02:00,27.0,20.0,30.10,NE,48,3.0,9.0,73,0.00,,,0.00,,2013-03-20 08:02:00,
2013-03-20 03:12:00,27.0,20.0,30.10,NE,48,3.0,9.0,73,0.00,,,0.00,,2013-03-20 08:12:00,
2013-03-20 03:22:00,27.0,20.0,30.10,NE,48,3.0,9.0,73,0.00,,,0.00,,2013-03-20 08:22:00,
2013-03-20 03:32:00,27.0,20.0,30.09,North,355,3.0,10.0,73,0.00,,,0.00,,2013-03-20 08:32:00,
2013-03-20 03:42:00,27.0,20.0,30.09,North,355,3.0,10.0,73,0.00,,,0.00,,2013-03-20 08:42:00,
2013-03-20 03:52:00,26.0,19.0,30.09,North,355,3.0,11.0,73,0.00,,,0.00,,2013-03-20 08:52:00,
2013-03-20 04:02:00,26.0,19.0,30.08,North,5,4.0,10.0,74,0.00,,,0.00,,2013-03-20 09:02:00,
2013-03-20 04:12:00,26.0,19.0,30.08,North,5,4.0,10.0,74,0.00,,,0.00,,2013-03-20 09:12:00,
2013-03-20 04:22:00,26.0,20.0,30.08,NW,320,3.0,9.0,77,0.00,,,0.00,,2013-03-20 09:22:00,
2013-03-20 04:32:00,26.0,19.0,30.09,North,11,6.0,11.0,76,0.00,,,0.00,,2013-03-20 09:32:00,
2013-03-20 04:43:00,26.0,19.0,30.09,North,11,6.0,11.0,76,0.00,,,0.00,,2013-03-20 09:43:00,
2013-03-20 04:53:00,26.0,19.0,30.08,NNW,341,2.0,9.0,76,0.00,,,0.00,,2013-03-20 09:53:00,
2013-03-20 05:03:00,25.0,18.0,30.08,North,355,5.0,12.0,75,0.00,,,0.00,,2013-03-20 10:03:00,
2013-03-20 05:12:00,25.0,18.0,30.08,North,355,5.0,12.0,75,0.00,,,0.00,,2013-03-20 10:12:00,
2013-03-20 05:23:00,24.0,17.0,30.08,North,5,6.0,15.0,73,0.00,,,0.00,,2013-03-20 10:23:00,
2013-03-20 05:32:00,24.0,17.0,30.09,NNW,340,4.0,11.0,75,0.00,,,0.00,,2013-03-20 10:32:00,
2013-03-20 05:42:00,24.0,17.0,30.09,NNW,340,4.0,11.0,75,0.00,,,0.00,,2013-03-20 10:42:00,
2013-03-20 05:53:00,23.0,16.0,30.09,NNW,342,8.0,14.0,75,0.00,,,0.00,,2013-03-20 10:53:00,
2013-03-20 06:03:00,22.0,14.0,30.10,NNW,331,6.0,17.0,71,0.00,,,0.00,,2013-03-20 11:03:00,
2013-03-20 06:12:00,22.0,14.0,30.10,NNW,331,6.0,17.0,71,0.00,,,0.00,,2013-03-20 11:12:00,
2013-03-20 06:22:00,21.0,13.0,30.10,North,5,8.0,16.0,71,0.00,,,0.00,,2013-03-20 11:22:00,
2013-03-20 06:32:00,21.0,13.0,30.11,North,350,6.0,16.0,72,0.00,,,0.00,,2013-03-20 11:32:00,
2013-03-20 06:42:00,21.0,13.0,30.11,North,350,6.0,16.0,72,0.00,,,0.00,,2013-03-20 11:42:00,
2013-03-20 06:52:00,20.0,13.0,30.11,WNW,289,5.0,13.0,73,0.00,,,0.00,,2013-03-20 11:52:00,
2013-03-20 07:02:00,20.0,13.0,30.12,NNW,348,6.0,14.0,75,0.00,,,0.00,,2013-03-20 12:02:00,
2013-03-20 07:12:00,20.0,13.0,30.12,NNW,348,6.0,14.0,75,0.00,,,0.00,,2013-03-20 12:12:00,
2013-03-20 07:22:00,20.0,14.0,30.12,West,266,7.0,13.0,76,0.00,,,0.00,,2013-03-20 12:22:00,
2013-03-20 07:32:00,19.0,12.0,30.12,NW,306,7.0,18.0,75,0.00,,,0.00,,2013-03-20 12:32:00,
2013-03-20 07:42:00,19.0,12.0,30.12,NW,306,7.0,18.0,75,0.00,,,0.00,,2013-03-20 12:42:00,
2013-03-20 07:52:00,19.0,12.0,30.12,North,5,8.0,22.0,74,0.00,,,0.00,,2013-03-20 12:52:00,
2013-03-20 08:03:00,19.0,12.0,30.13,NNW,338,9.0,16.0,73,0.00,,,0.00,,2013-03-20 13:03:00,
2013-03-20 08:12:00,19.0,12.0,30.13,NNW,338,9.0,16.0,73,0.00,,,0.00,,2013-03-20 13:12:00,
2013-03-20 08:22:00,19.0,12.0,30.13,North,355,8.0,13.0,73,0.00,,,0.00,,2013-03-20 13:22:00,
2013-03-20 08:32:00,18.0,11.0,30.14,West,276,7.0,17.0,73,0.00,,,0.00,,2013-03-20 13:32:00,
2013-03-20 08:42:00,18.0,11.0,30.14,West,276,7.0,17.0,73,0.00,,,0.00,,2013-03-20 13:42:00,
2013-03-20 08:52:00,19.0,11.0,30.14,NW,323,6.0,13.0,71,0.00,,,0.00,,2013-03-20 13:52:00,
2013-03-20 09:02:00,19.0,10.0,30.14,NNW,347,6.0,19.0,66,0.00,,,0.00,,2013-03-20 14:02:00,
2013-03-20 09:12:00,19.0,10.0,30.14,NNW,347,6.0,19.0,66,0.00,,,0.00,,2013-03-20 14:12:00,
2013-03-20 09:22:00,19.0,10.0,30.14,NNW,347,6.0,19.0,66,0.00,,,0.00,,2013-03-20 14:22:00,
2013-03-20 09:33:00,19.0,11.0,30.14,NW,311,5.0,18.0,69,0.00,,,0.00,,2013-03-20 14:33:00,
2013-03-20 09:42:00,19.0,11.0,30.14,NW,311,5.0,18.0,69,0.00,,,0.00,,2013-03-20 14:42:00,
2013-03-20 09:52:00,20.0,10.0,30.14,NW,323,6.0,20.0,65,0.00,,,0.00,,2013-03-20 14:52:00,
2013-03-20 10:02:00,20.0,9.0,30.14,NW,311,5.0,16.0,63,0.00,,,0.00,,2013-03-20 15:02:00,
2013-03-20 10:12:00,20.0,9.0,30.14,NW,311,5.0,16.0,63,0.00,,,0.00,,2013-03-20 15:12:00,
2013-03-20 10:22:00,20.0,9.0,30.14,NW,311,5.0,16.0,63,0.00,,,0.00,,2013-03-20 15:22:00,
2013-03-20 10:33:00,20.0,9.0,30.14,North,360,7.0,18.0,61,0.00,,,0.00,,2013-03-20 15:33:00,
2013-03-20 10:43:00,20.0,9.0,30.14,North,360,7.0,18.0,61,0.00,,,0.00,,2013-03-20 15:43:00,
2013-03-20 10:52:00,21.0,10.0,30.14,North,355,7.0,18.0,63,0.00,,,0.00,,2013-03-20 15:52:00,
2013-03-20 11:03:00,22.0,10.0,30.14,North,11,5.0,13.0,60,0.00,,,0.00,,2013-03-20 16:03:00,
2013-03-20 11:12:00,22.0,10.0,30.14,North,11,5.0,13.0,60,0.00,,,0.00,,2013-03-20 16:12:00,
2013-03-20 11:23:00,22.0,9.0,30.14,North,351,9.0,18.0,57,0.00,,,0.00,,2013-03-20 16:23:00,
2013-03-20 11:33:00,22.0,9.0,30.14,NW,318,8.0,23.0,57,0.00,,,0.00,,2013-03-20 16:33:00,
2013-03-20 11:43:00,22.0,9.0,30.14,NW,318,8.0,23.0,57,0.00,,,0.00,,2013-03-20 16:43:00,
2013-03-20 11:52:00,23.0,10.0,30.14,NNE,33,6.0,17.0,57,0.00,,,0.00,,2013-03-20 16:52:00,
2013-03-20 12:03:00,23.0,9.0,30.14,North,355,9.0,17.0,54,0.00,,,0.00,,2013-03-20 17:03:00,
2013-03-20 12:12:00,23.0,9.0,30.14,North,355,9.0,17.0,54,0.00,,,0.00,,2013-03-20 17:12:00,
2013-03-20 12:22:00,24.0,10.0,30.13,NW,324,8.0,19.0,55,0.00,,,0.00,,2013-03-20 17:22:00,
2013-03-20 12:32:00,24.0,9.0,30.13,North,360,4.0,14.0,53,0.00,,,0.00,,2013-03-20 17:32:00,
2013-03-20 12:42:00,24.0,9.0,30.13,North,360,4.0,14.0,53,0.00,,,0.00,,2013-03-20 17:42:00,
2013-03-20 12:52:00,25.0,10.0,30.13,WNW,296,6.0,17.0,52,0.00,,,0.00,,2013-03-20 17:52:00,
2013-03-20 13:02:00,25.0,10.0,30.12,North,355,7.0,15.0,53,0.00,,,0.00,,2013-03-20 18:02:00,
2013-03-20 13:12:00,25.0,10.0,30.12,North,355,7.0,15.0,53,0.00,,,0.00,,2013-03-20 18:12:00,
2013-03-20 13:22:00,26.0,12.0,30.12,WNW,303,6.0,15.0,55,0.00,,,0.00,,2013-03-20 18:22:00,
2013-03-20 13:33:00,26.0,10.0,30.12,NNW,345,9.0,17.0,51,0.00,,,0.00,,2013-03-20 18:33:00,
2013-03-20 13:42:00,26.0,10.0,30.12,NNW,345,9.0,17.0,51,0.00,,,0.00,,2013-03-20 18:42:00,
2013-03-20 13:52:00,26.0,11.0,30.11,WNW,302,8.0,17.0,53,0.00,,,0.00,,2013-03-20 18:52:00,
2013-03-20 14:02:00,27.0,11.0,30.11,NNW,341,8.0,15.0,51,0.00,,,0.00,,2013-03-20 19:02:00,
2013-03-20 14:12:00,27.0,11.0,30.11,NNW,341,8.0,15.0,51,0.00,,,0.00,,2013-03-20 19:12:00,
2013-03-20 14:22:00,27.0,10.0,30.10,NNE,17,9.0,17.0,48,0.00,,,0.00,,2013-03-20 19:22:00,
2013-03-20 14:32:00,27.0,9.0,30.09,NNW,334,8.0,17.0,47,0.00,,,0.00,,2013-03-20 19:32:00,
2013-03-20 14:42:00,27.0,9.0,30.09,NNW,334,8.0,17.0,47,0.00,,,0.00,,2013-03-20 19:42:00,
2013-03-20 14:52:00,27.0,11.0,30.09,North,5,7.0,16.0,50,0.00,,,0.00,,2013-03-20 19:52:00,
2013-03-20 15:02:00,27.0,9.0,30.08,WNW,292,10.0,19.0,47,0.00,,,0.00,,2013-03-20 20:02:00,
2013-03-20 15:13:00,27.0,9.0,30.08,WNW,292,10.0,19.0,47,0.00,,,0.00,,2013-03-20 20:13:00,
2013-03-20 15:22:00,27.0,10.0,30.08,NW,311,7.0,17.0,49,0.00,,,0.00,,2013-03-20 20:22:00,
2013-03-20 15:32:00,28.0,11.0,30.08,NW,314,8.0,13.0,48,0.00,,,0.00,,2013-03-20 20:32:00,
2013-03-20 15:42:00,28.0,11.0,30.08,NW,314,8.0,13.0,48,0.00,,,0.00,,2013-03-20 20:42:00,
2013-03-20 15:52:00,28.0,11.0,30.07,NNW,342,9.0,18.0,48,0.00,,,0.00,,2013-03-20 20:52:00,
2013-03-20 16:02:00,27.0,10.0,30.07,NNE,25,9.0,16.0,48,0.00,,,0.00,,2013-03-20 21:02:00,
2013-03-20 16:12:00,27.0,10.0,30.07,NNE,25,9.0,16.0,48,0.00,,,0.00,,2013-03-20 21:12:00,
2013-03-20 16:22:00,28.0,11.0,30.07,WNW,288,7.0,18.0,48,0.00,,,0.00,,2013-03-20 21:22:00,
2013-03-20 16:33:00,27.0,10.0,30.07,NNW,348,8.0,19.0,48,0.00,,,0.00,,2013-03-20 21:33:00,
2013-03-20 16:42:00,27.0,10.0,30.07,NNW,348,8.0,19.0,48,0.00,,,0.00,,2013-03-20 21:42:00,
2013-03-20 16:52:00,28.0,12.0,30.06,NW,315,7.0,19.0,50,0.00,,,0.00,,2013-03-20 21:52:00,
2013-03-20 17:03:00,28.0,13.0,30.06,North,355,6.0,14.0,52,0.00,,,0.00,,2013-03-20 22:03:00,
2013-03-20 17:12:00,28.0,13.0,30.06,North,355,6.0,14.0,52,0.00,,,0.00,,2013-03-20 22:12:00,
2013-03-20 17:23:00,27.0,12.0,30.06,NNW,344,11.0,21.0,53,0.00,,,0.00,,2013-03-20 22:23:00,
2013-03-20 17:33:00,27.0,12.0,30.07,North,5,7.0,17.0,53,0.00,,,0.00,,2013-03-20 22:33:00,
2013-03-20 17:42:00,27.0,12.0,30.07,North,5,7.0,17.0,53,0.00,,,0.00,,2013-03-20 22:42:00,
2013-03-20 17:52:00,26.0,12.0,30.07,NNW,331,10.0,22.0,54,0.00,,,0.00,,2013-03-20 22:52:00,
2013-03-20 18:02:00,26.0,12.0,30.08,North,360,8.0,23.0,55,0.00,,,0.00,,2013-03-20 23:02:00,
2013-03-20 18:12:00,26.0,12.0,30.08,North,360,8.0,23.0,55,0.00,,,0.00,,2013-03-20 23:12:00,
2013-03-20 18:22:00,25.0,12.0,30.08,North,360,6.0,15.0,58,0.00,,,0.00,,2013-03-20 23:22:00,
2013-03-20 18:32:00,25.0,12.0,30.08,WNW,289,7.0,18.0,57,0.00,,,0.00,,2013-03-20 23:32:00,
2013-03-20 18:42:00,25.0,12.0,30.08,WNW,289,7.0,18.0,57,0.00,,,0.00,,2013-03-20 23:42:00,
2013-03-20 18:52:00,25.0,13.0,30.08,North,355,8.0,18.0,60,0.00,,,0.00,,2013-03-20 23:52:00,
2013-03-20 19:02:00,24.0,13.0,30.08,North,5,6.0,15.0,63,0.00,,,0.00,,2013-03-21 00:02:00,
2013-03-20 19:12:00,24.0,13.0,30.08,North,5,6.0,15.0,63,0.00,,,0.00,,2013-03-21 00:12:00,
2013-03-20 19:23:00,24.0,13.0,30.08,NW,311,7.0,21.0,62,0.00,,,0.00,,2013-03-21 00:23:00,
2013-03-20 19:32:00,24.0,13.0,30.09,NNW,336,7.0,14.0,62,0.00,,,0.00,,2013-03-21 00:32:00,
2013-03-20 19:42:00,24.0,13.0,30.09,NNW,336,7.0,14.0,62,0.00,,,0.00,,2013-03-21 00:42:00,
2013-03-20 19:52:00,24.0,13.0,30.09,NNW,334,7.0,13.0,62,0.00,,,0.00,,2013-03-21 00:52:00,
2013-03-20 20:02:00,24.0,13.0,30.09,NNE,21,7.0,12.0,63,0.00,,,0.00,,2013-03-21 01:02:00,
2013-03-20 20:12:00,24.0,13.0,30.09,NNE,21,7.0,12.0,63,0.00,,,0.00,,2013-03-21 01:12:00,
2013-03-20 20:22:00,24.0,12.0,30.08,NNE,19,8.0,16.0,60,0.00,,,0.00,,2013-03-21 01:22:00,
2013-03-20 20:32:00,23.0,12.0,30.08,North,355,4.0,14.0,62,0.00,,,0.00,,2013-03-21 01:32:00,
2013-03-20 20:42:00,23.0,12.0,30.08,North,355,4.0,14.0,62,0.00,,,0.00,,2013-03-21 01:42:00,
2013-03-20 20:52:00,23.0,12.0,30.08,NNW,344,5.0,15.0,61,0.00,,,0.00,,2013-03-21 01:52:00,
2013-03-20 21:02:00,23.0,11.0,30.09,NNW,333,5.0,17.0,59,0.00,,,0.00,,2013-03-21 02:02:00,
2013-03-20 21:12:00,23.0,11.0,30.09,NNW,333,5.0,17.0,59,0.00,,,0.00,,2013-03-21 02:12:00,
2013-03-20 21:22:00,23.0,12.0,30.08,North,355,8.0,13.0,62,0.00,,,0.00,,2013-03-21 02:22:00,
2013-03-20 21:32:00,23.0,13.0,30.08,NNW,329,5.0,11.0,64,0.00,,,0.00,,2013-03-21 02:32:00,
2013-03-20 21:42:00,23.0,13.0,30.08,NNW,329,5.0,11.0,64,0.00,,,0.00,,2013-03-21 02:42:00,
2013-03-20 21:51:00,23.0,13.0,30.08,NNW,329,5.0,11.0,64,0.00,,,0.00,,2013-03-21 02:51:00,
2013-03-20 22:02:00,23.0,12.0,30.08,NNW,334,8.0,18.0,62,0.00,,,0.00,,2013-03-21 03:02:00,
2013-03-20 22:12:00,23.0,12.0,30.08,NNW,334,8.0,18.0,62,0.00,,,0.00,,2013-03-21 03:12:00,
2013-03-20 22:22:00,22.0,11.0,30.08,NNW,336,7.0,19.0,63,0.00,,,0.00,,2013-03-21 03:22:00,
2013-03-20 22:33:00,22.0,12.0,30.08,North,5,6.0,13.0,65,0.00,,,0.00,,2013-03-21 03:33:00,
2013-03-20 22:43:00,22.0,12.0,30.08,North,5,6.0,13.0,65,0.00,,,0.00,,2013-03-21 03:43:00,
2013-03-20 22:53:00,22.0,13.0,30.08,NNW,342,5.0,13.0,69,0.00,,,0.00,,2013-03-21 03:53:00,
2013-03-20 23:03:00,22.0,13.0,30.08,NNW,342,5.0,13.0,69,0.00,,,0.00,,2013-03-21 04:03:00,
2013-03-20 23:13:00,22.0,13.0,30.08,NNW,342,5.0,13.0,69,0.00,,,0.00,,2013-03-21 04:13:00,
2013-03-20 23:23:00,21.0,13.0,30.08,North,360,4.0,11.0,72,0.00,,,0.00,,2013-03-21 04:23:00,
2013-03-20 23:33:00,21.0,13.0,30.07,North,10,6.0,11.0,71,0.00,,,0.00,,2013-03-21 04:33:00,
2013-03-20 23:43:00,21.0,13.0,30.07,North,10,6.0,11.0,71,0.00,,,0.00,,2013-03-21 04:43:00,
2013-03-20 23:53:00,21.0,15.0,30.08,North,5,7.0,14.0,78,0.00,,,0.00,,2013-03-21 04:53:00,